Time;durP1;ratioP1;P1;durP2;ratioP2;P2;SDS_P1;SDS_P2;PMS_P1;PMS_P2;Temp;Humidity;BMP_temperature;BMP_pressure;BME280_temperature;BME280_humidity;BME280_pressure;Samples;Min_cycle;Max_cycle;Signal;HPM_P1;HPM_P2
2023/07/20 00:01:20;;;;;;;5.70;4.28;;;18.10;99.90;;;;;;5028121;28;20202;-79
2023/07/20 00:03:54;;;;;;;5.93;4.32;;;18.10;99.90;;;;;;5030668;28;20194;-79
2023/07/20 00:06:21;;;;;;;5.00;3.80;;;18.10;99.90;;;;;;5028413;28;20214;-79
2023/07/20 00:08:49;;;;;;;4.70;4.30;;;18.20;99.90;;;;;;5029399;28;20199;-79
2023/07/20 00:11:18;;;;;;;6.57;4.30;;;18.20;99.90;;;;;;5061728;28;20218;-78
2023/07/20 00:13:45;;;;;;;5.32;3.90;;;18.20;99.90;;;;;;5032789;28;20199;-78
2023/07/20 00:16:13;;;;;;;5.53;4.18;;;18.20;99.90;;;;;;5033168;28;20219;-78
2023/07/20 00:18:40;;;;;;;4.97;4.18;;;18.30;99.90;;;;;;5030633;28;20206;-78
2023/07/20 00:21:08;;;;;;;5.20;4.10;;;18.20;99.90;;;;;;5031087;28;20195;-78
2023/07/20 00:23:35;;;;;;;4.95;4.45;;;18.20;99.90;;;;;;5027551;28;20204;-78
2023/07/20 00:26:03;;;;;;;5.20;3.60;;;18.20;99.90;;;;;;5022592;28;20222;-79
2023/07/20 00:28:31;;;;;;;5.82;3.70;;;18.20;99.90;;;;;;5029782;28;20195;-79
2023/07/20 00:31:00;;;;;;;5.65;4.03;;;18.40;99.90;;;;;;5028807;28;20221;-79
2023/07/20 00:33:28;;;;;;;3.70;3.40;;;18.40;99.90;;;;;;5044342;28;20207;-79
2023/07/20 00:35:55;;;;;;;6.45;4.35;;;18.40;99.90;;;;;;5024030;28;20234;-78
2023/07/20 00:38:22;;;;;;;5.53;4.00;;;18.30;99.90;;;;;;5026351;28;20203;-79
2023/07/20 00:40:50;;;;;;;5.00;4.32;;;18.20;99.90;;;;;;5023985;28;20199;-78
2023/07/20 00:43:19;;;;;;;4.65;3.88;;;18.30;99.90;;;;;;5018065;28;20203;-79
2023/07/20 00:45:48;;;;;;;5.03;3.45;;;18.40;99.90;;;;;;5030467;28;20223;-79
2023/07/20 00:48:15;;;;;;;5.22;4.20;;;18.50;99.90;;;;;;5063091;28;20214;-79
2023/07/20 00:50:45;;;;;;;5.85;4.07;;;18.60;99.90;;;;;;5025749;28;20211;-79
2023/07/20 00:53:12;;;;;;;5.82;3.80;;;18.60;99.90;;;;;;5026146;28;20203;-79
2023/07/20 00:55:40;;;;;;;5.35;4.03;;;18.40;99.90;;;;;;5032296;28;20222;-78
2023/07/20 00:58:09;;;;;;;4.78;4.15;;;18.40;99.90;;;;;;5030429;28;20195;-79
2023/07/20 01:00:36;;;;;;;7.50;4.57;;;18.30;99.90;;;;;;5042710;28;20206;-78
2023/07/20 01:03:05;;;;;;;5.15;3.70;;;18.20;99.90;;;;;;5026512;28;20565;-78
2023/07/20 01:05:41;;;;;;;5.35;4.85;;;18.30;99.90;;;;;;5020253;28;20219;-79
2023/07/20 01:08:16;;;;;;;5.30;4.00;;;18.40;99.90;;;;;;5027919;28;20221;-77
2023/07/20 01:10:50;;;;;;;5.28;3.80;;;18.40;99.90;;;;;;5032552;28;20572;-79
2023/07/20 01:13:19;;;;;;;3.83;3.47;;;18.50;99.90;;;;;;5028768;28;20203;-78
2023/07/20 01:15:50;;;;;;;6.63;4.00;;;18.30;99.90;;;;;;5026598;28;20226;-79
2023/07/20 01:18:19;;;;;;;5.80;4.25;;;18.30;99.90;;;;;;5026483;28;20207;-78
2023/07/20 01:20:47;;;;;;;8.80;4.63;;;18.20;99.90;;;;;;5057674;28;20226;-78
2023/07/20 01:23:31;;;;;;;5.20;4.65;;;18.30;99.90;;;;;;5029774;28;20210;-79
2023/07/20 01:26:29;;;;;;;6.45;4.13;;;18.10;99.90;;;;;;5034453;28;20215;-79
2023/07/20 01:29:17;;;;;;;7.03;4.60;;;18.10;99.90;;;;;;5020772;28;20217;-79
2023/07/20 01:31:48;;;;;;;5.93;3.90;;;18.20;99.90;;;;;;5031319;28;20207;-79
2023/07/20 01:34:18;;;;;;;5.13;4.60;;;18.10;99.90;;;;;;5021417;28;20553;-78
2023/07/20 01:36:47;;;;;;;6.38;4.80;;;18.00;99.90;;;;;;5041756;28;20218;-79
2023/07/20 01:39:14;;;;;;;6.10;4.45;;;18.20;99.90;;;;;;5027904;28;20195;-78
2023/07/20 01:41:42;;;;;;;7.63;4.70;;;18.30;99.90;;;;;;5031755;28;20203;-78
2023/07/20 01:44:10;;;;;;;7.72;4.30;;;18.30;99.90;;;;;;5029353;28;20210;-78
2023/07/20 01:46:38;;;;;;;8.82;5.38;;;18.30;99.90;;;;;;5031545;28;20616;-78
2023/07/20 01:49:07;;;;;;;6.55;4.97;;;18.10;99.90;;;;;;5028195;28;20203;-78
2023/07/20 01:51:34;;;;;;;6.55;5.72;;;17.90;99.90;;;;;;5031499;28;20202;-79
2023/07/20 01:54:02;;;;;;;7.30;5.28;;;17.70;99.90;;;;;;5029339;28;20198;-78
2023/07/20 01:56:29;;;;;;;7.00;5.03;;;17.50;99.90;;;;;;5025506;28;20222;-79
2023/07/20 01:58:57;;;;;;;5.90;5.25;;;17.70;99.90;;;;;;5023032;28;20210;-78
2023/07/20 02:01:24;;;;;;;7.20;5.82;;;17.80;99.90;;;;;;5029999;28;20222;-79
2023/07/20 02:03:51;;;;;;;7.43;5.43;;;17.60;99.90;;;;;;5023507;28;20204;-79
2023/07/20 02:06:21;;;;;;;6.05;5.45;;;17.70;99.90;;;;;;5031974;28;20223;-79
2023/07/20 02:08:57;;;;;;;6.07;5.00;;;17.70;99.90;;;;;;5030688;28;20206;-78
2023/07/20 02:11:24;;;;;;;7.28;5.65;;;17.80;99.90;;;;;;5028443;28;20203;-79
2023/07/20 02:13:52;;;;;;;9.20;5.38;;;17.70;99.90;;;;;;5029926;28;20195;-78
2023/07/20 02:16:19;;;;;;;8.80;5.93;;;17.60;99.90;;;;;;5019805;28;20215;-78
2023/07/20 02:18:48;;;;;;;7.65;5.85;;;17.60;99.90;;;;;;5024755;28;20203;-78
2023/07/20 02:21:15;;;;;;;8.20;5.45;;;17.60;99.90;;;;;;5018936;28;20208;-78
2023/07/20 02:23:44;;;;;;;6.40;5.53;;;17.70;99.90;;;;;;5030167;28;20206;-77
2023/07/20 02:26:11;;;;;;;10.32;5.97;;;17.60;99.90;;;;;;5046514;28;20222;-78
2023/07/20 02:28:39;;;;;;;8.60;6.50;;;17.50;99.90;;;;;;5026442;28;20222;-78
2023/07/20 02:31:06;;;;;;;8.65;7.60;;;17.40;99.90;;;;;;5027222;28;20208;-78
2023/07/20 02:33:36;;;;;;;10.30;8.02;;;17.30;99.90;;;;;;5019798;28;20195;-79
2023/07/20 02:36:03;;;;;;;9.77;7.15;;;17.20;99.90;;;;;;5027297;28;20207;-78
2023/07/20 02:38:31;;;;;;;9.38;7.20;;;17.40;99.90;;;;;;5028340;28;20206;-78
2023/07/20 02:41:00;;;;;;;9.95;6.40;;;17.40;99.90;;;;;;5018597;28;20208;-78
2023/07/20 02:43:28;;;;;;;9.05;6.90;;;17.40;99.90;;;;;;5044177;28;20196;-78
2023/07/20 02:45:55;;;;;;;11.25;7.05;;;17.30;99.90;;;;;;5030327;28;20235;-78
2023/07/20 02:48:23;;;;;;;7.72;6.70;;;17.10;99.90;;;;;;5028142;28;20214;-78
2023/07/20 02:50:50;;;;;;;10.75;6.80;;;17.20;99.90;;;;;;5025847;28;20600;-80
2023/07/20 02:53:18;;;;;;;8.88;7.18;;;17.30;99.90;;;;;;5027614;28;20215;-79
2023/07/20 02:55:45;;;;;;;8.55;7.50;;;17.20;99.90;;;;;;5027462;28;20219;-79
2023/07/20 02:58:14;;;;;;;9.43;7.38;;;17.20;99.90;;;;;;5042988;28;20195;-79
2023/07/20 03:00:43;;;;;;;10.88;7.90;;;17.20;99.90;;;;;;5028931;28;20199;-78
2023/07/20 03:03:11;;;;;;;9.65;7.72;;;17.00;99.90;;;;;;5021916;28;20203;-78
2023/07/20 03:05:41;;;;;;;11.35;8.55;;;17.00;99.90;;;;;;5028716;28;20218;-80
2023/07/20 03:08:10;;;;;;;9.10;8.15;;;16.80;99.90;;;;;;5025642;28;20222;-80
2023/07/20 03:10:40;;;;;;;9.43;7.88;;;16.90;99.90;;;;;;5024953;28;20187;-78
2023/07/20 03:13:08;;;;;;;10.30;8.25;;;17.00;99.90;;;;;;5029991;28;20199;-79
2023/07/20 03:15:37;;;;;;;8.95;7.78;;;17.00;99.90;;;;;;5024747;28;20242;-78
2023/07/20 03:18:04;;;;;;;8.65;7.70;;;17.00;99.90;;;;;;5039342;28;20195;-78
2023/07/20 03:20:32;;;;;;;11.93;9.27;;;17.10;99.90;;;;;;5029646;28;20249;-78
2023/07/20 03:23:00;;;;;;;14.52;10.20;;;17.00;99.90;;;;;;5028788;28;20203;-78
2023/07/20 03:25:27;;;;;;;12.07;10.50;;;17.00;99.90;;;;;;5028268;28;20223;-78
2023/07/20 03:27:55;;;;;;;12.38;9.88;;;16.90;99.90;;;;;;5025425;28;20218;-78
2023/07/20 03:30:23;;;;;;;15.15;10.85;;;17.00;99.90;;;;;;5028867;28;20214;-78
2023/07/20 03:32:52;;;;;;;14.02;11.98;;;16.90;99.90;;;;;;5031949;28;20199;-78
2023/07/20 03:35:19;;;;;;;12.50;10.23;;;17.00;99.90;;;;;;5027151;28;20223;-78
2023/07/20 03:37:47;;;;;;;14.10;12.50;;;17.00;99.90;;;;;;5029507;28;20210;-78
2023/07/20 03:40:16;;;;;;;16.08;12.05;;;17.10;99.90;;;;;;5028613;28;20210;-78
2023/07/20 03:42:43;;;;;;;12.50;11.20;;;17.20;99.90;;;;;;5029767;28;20203;-78
2023/07/20 03:45:11;;;;;;;13.05;11.52;;;17.30;99.90;;;;;;5019307;28;20575;-78
2023/07/20 03:47:38;;;;;;;14.57;12.45;;;17.40;99.90;;;;;;5031973;28;20226;-78
2023/07/20 03:50:09;;;;;;;16.05;13.32;;;17.40;99.90;;;;;;5026821;28;20203;-78
2023/07/20 03:52:37;;;;;;;18.17;13.38;;;17.20;99.90;;;;;;5016794;28;20187;-78
2023/07/20 03:55:06;;;;;;;16.35;13.82;;;17.30;99.90;;;;;;5028936;28;20716;-78
2023/07/20 03:57:33;;;;;;;15.88;13.57;;;17.30;99.90;;;;;;5020944;28;20199;-78
2023/07/20 04:00:01;;;;;;;15.48;13.65;;;17.40;99.90;;;;;;5025237;28;20561;-78
2023/07/20 04:02:28;;;;;;;16.52;14.80;;;17.30;99.90;;;;;;5052091;28;20203;-79
2023/07/20 04:04:56;;;;;;;17.63;14.57;;;17.30;99.90;;;;;;5022980;28;20210;-78
2023/07/20 04:07:25;;;;;;;17.73;15.45;;;17.30;99.90;;;;;;5023225;28;20572;-79
2023/07/20 04:09:52;;;;;;;15.10;13.50;;;17.10;99.90;;;;;;5022974;28;20199;-78
2023/07/20 04:12:19;;;;;;;14.32;12.77;;;17.00;99.90;;;;;;5030113;28;20203;-78
2023/07/20 04:14:47;;;;;;;13.68;11.85;;;17.00;99.90;;;;;;5030888;28;20206;-79
2023/07/20 04:17:14;;;;;;;13.07;11.65;;;17.10;99.90;;;;;;5030656;28;20195;-78
2023/07/20 04:19:42;;;;;;;12.80;11.45;;;17.10;99.90;;;;;;5029076;28;20677;-78
2023/07/20 04:22:10;;;;;;;14.43;12.25;;;17.10;99.90;;;;;;5026632;28;20195;-77
2023/07/20 04:24:38;;;;;;;15.20;13.65;;;17.00;99.90;;;;;;5052631;28;20198;-78
2023/07/20 04:27:06;;;;;;;15.57;13.70;;;17.10;99.90;;;;;;5024398;28;20206;-79
2023/07/20 04:29:33;;;;;;;15.02;13.18;;;17.10;99.90;;;;;;5029573;28;20211;-79
2023/07/20 04:32:01;;;;;;;15.65;13.90;;;17.10;99.90;;;;;;5027365;28;20229;-78
2023/07/20 04:34:28;;;;;;;15.93;14.32;;;17.10;99.90;;;;;;5033160;28;20210;-78
2023/07/20 04:36:56;;;;;;;15.63;14.02;;;17.00;99.90;;;;;;5025993;28;20212;-79
2023/07/20 04:39:26;;;;;;;15.50;13.85;;;17.00;99.90;;;;;;5047862;28;20196;-78
2023/07/20 04:42:04;;;;;;;14.82;13.32;;;17.10;99.90;;;;;;5050979;28;20582;-78
2023/07/20 04:44:32;;;;;;;15.30;13.75;;;17.20;99.90;;;;;;5028684;28;20206;-78
2023/07/20 04:46:59;;;;;;;14.77;13.15;;;17.20;99.90;;;;;;5045853;28;20219;-79
2023/07/20 04:49:27;;;;;;;15.10;13.50;;;17.20;99.90;;;;;;5032638;28;20218;-79
2023/07/20 04:51:54;;;;;;;14.40;12.90;;;17.20;99.90;;;;;;5032951;28;20195;-79
2023/07/20 04:54:22;;;;;;;14.23;12.90;;;17.30;99.90;;;;;;5032203;28;20206;-79
2023/07/20 04:56:50;;;;;;;13.20;11.90;;;17.30;99.90;;;;;;5030005;28;20214;-79
2023/07/20 04:59:20;;;;;;;12.48;11.20;;;17.20;99.90;;;;;;5032013;28;20199;-79
2023/07/20 05:01:48;;;;;;;12.77;11.57;;;17.20;99.90;;;;;;5033093;28;20191;-79
2023/07/20 05:04:16;;;;;;;12.25;11.05;;;17.20;99.90;;;;;;5031078;28;20580;-79
2023/07/20 05:06:44;;;;;;;12.77;11.48;;;17.20;99.90;;;;;;5032515;28;20239;-79
2023/07/20 05:09:12;;;;;;;13.63;12.32;;;17.20;99.90;;;;;;5031549;28;20216;-79
2023/07/20 05:11:39;;;;;;;14.10;12.68;;;17.20;99.90;;;;;;5031470;28;20199;-79
2023/07/20 05:14:07;;;;;;;13.70;12.05;;;17.20;99.90;;;;;;5023115;28;20222;-79
2023/07/20 05:16:35;;;;;;;14.60;12.05;;;17.20;99.90;;;;;;5029263;28;20225;-80
2023/07/20 05:19:06;;;;;;;13.52;12.00;;;17.20;99.90;;;;;;5031723;28;20683;-79
2023/07/20 05:21:33;;;;;;;14.00;12.55;;;17.20;99.90;;;;;;5032621;28;20195;-79
2023/07/20 05:24:01;;;;;;;15.05;13.55;;;17.20;99.90;;;;;;5032545;28;20203;-79
2023/07/20 05:26:29;;;;;;;14.60;13.00;;;17.20;99.90;;;;;;5031174;28;20632;-79
2023/07/20 05:28:56;;;;;;;14.15;12.77;;;17.20;99.90;;;;;;5031735;28;20215;-79
2023/07/20 05:31:24;;;;;;;13.85;11.60;;;17.20;99.90;;;;;;5014071;28;20203;-79
2023/07/20 05:34:26;;;;;;;13.60;11.88;;;17.10;99.90;;;;;;5003984;28;20200;-80
2023/07/20 05:36:53;;;;;;;12.77;11.05;;;17.10;99.90;;;;;;5018250;28;20220;-80
2023/07/20 05:39:21;;;;;;;12.10;10.90;;;17.20;99.90;;;;;;5040750;28;20688;-79
2023/07/20 05:41:52;;;;;;;12.43;11.27;;;17.10;99.90;;;;;;5010112;28;20211;-78
2023/07/20 05:44:19;;;;;;;11.43;10.43;;;17.10;99.90;;;;;;5006443;28;20209;-78
2023/07/20 05:46:54;;;;;;;11.10;9.93;;;17.20;99.90;;;;;;5006018;28;20578;-78
2023/07/20 05:49:26;;;;;;;10.90;9.90;;;17.20;99.90;;;;;;5011685;28;20215;-79
2023/07/20 05:51:53;;;;;;;10.02;9.02;;;17.20;99.90;;;;;;5009289;28;20199;-79
2023/07/20 05:54:21;;;;;;;10.32;8.82;;;17.30;99.90;;;;;;5001415;28;20219;-78
2023/07/20 05:56:53;;;;;;;12.00;9.05;;;17.30;99.90;;;;;;4999691;28;20221;-79
2023/07/20 05:59:25;;;;;;;9.32;8.52;;;17.30;99.90;;;;;;5027553;28;20226;-78
2023/07/20 06:01:52;;;;;;;8.73;7.82;;;17.40;99.90;;;;;;5028284;28;20699;-79
2023/07/20 06:04:25;;;;;;;8.02;7.18;;;17.40;99.90;;;;;;5033449;28;20207;-79
2023/07/20 06:06:53;;;;;;;7.60;6.82;;;17.30;99.90;;;;;;5009001;28;20714;-79
2023/07/20 06:09:20;;;;;;;8.60;6.85;;;17.40;99.90;;;;;;5008237;28;20202;-80
2023/07/20 06:11:48;;;;;;;7.20;6.60;;;17.40;99.90;;;;;;5011351;28;20215;-79
2023/07/20 06:14:15;;;;;;;7.93;7.07;;;17.40;99.90;;;;;;5008649;28;20200;-80
2023/07/20 06:16:43;;;;;;;6.72;6.13;;;17.60;99.90;;;;;;5010823;28;20227;-79
2023/07/20 06:19:12;;;;;;;8.57;5.75;;;17.70;99.90;;;;;;5013006;28;20206;-79
2023/07/20 06:21:40;;;;;;;6.65;6.07;;;17.80;99.90;;;;;;5009745;28;21212;-79
2023/07/20 06:24:09;;;;;;;6.05;5.55;;;17.70;99.90;;;;;;5003683;28;20195;-79
2023/07/20 06:26:38;;;;;;;5.93;5.43;;;17.60;99.90;;;;;;5004503;28;20223;-79
2023/07/20 06:29:07;;;;;;;4.97;4.57;;;17.70;99.90;;;;;;5013015;28;20219;-79
2023/07/20 06:31:34;;;;;;;5.60;5.10;;;17.80;99.90;;;;;;5019729;28;20203;-79
2023/07/20 06:34:02;;;;;;;5.78;5.22;;;17.90;99.90;;;;;;5023540;28;20207;-79
2023/07/20 06:36:29;;;;;;;6.07;5.47;;;17.80;99.90;;;;;;5024376;28;20230;-79
2023/07/20 06:38:58;;;;;;;5.85;5.22;;;17.90;99.90;;;;;;5020646;28;20211;-79
2023/07/20 06:41:26;;;;;;;5.40;4.90;;;17.90;99.90;;;;;;5031706;28;20191;-79
2023/07/20 06:43:57;;;;;;;4.38;3.97;;;18.10;99.90;;;;;;5033501;28;20214;-79
2023/07/20 06:46:26;;;;;;;5.32;4.78;;;18.20;99.90;;;;;;5032101;28;20215;-79
2023/07/20 06:48:54;;;;;;;5.32;4.85;;;18.10;99.90;;;;;;5033593;28;20202;-79
2023/07/20 06:51:22;;;;;;;4.82;3.95;;;18.00;99.90;;;;;;5031920;28;20198;-79
2023/07/20 06:53:49;;;;;;;3.20;2.90;;;17.90;99.90;;;;;;5028892;28;20195;-79
2023/07/20 06:56:18;;;;;;;2.72;2.53;;;17.80;99.90;;;;;;5029905;28;20270;-79
2023/07/20 06:58:45;;;;;;;3.35;3.05;;;17.80;99.90;;;;;;5014579;28;20206;-79
2023/07/20 07:01:14;;;;;;;2.97;2.63;;;17.90;99.90;;;;;;5033579;28;20672;-79
2023/07/20 07:03:42;;;;;;;2.90;2.67;;;18.10;99.90;;;;;;5033014;28;20191;-79
2023/07/20 07:06:10;;;;;;;3.17;2.97;;;18.00;99.90;;;;;;5033097;28;20215;-79
2023/07/20 07:08:37;;;;;;;3.97;3.10;;;17.90;99.90;;;;;;5034721;28;20202;-79
2023/07/20 07:11:05;;;;;;;11.20;3.75;;;18.00;99.90;;;;;;5033271;28;20203;-79
2023/07/20 07:13:34;;;;;;;3.50;3.20;;;18.00;99.90;;;;;;5033708;28;20206;-79
2023/07/20 07:16:05;;;;;;;4.53;3.53;;;18.20;99.90;;;;;;5033016;28;20241;-79
2023/07/20 07:18:33;;;;;;;3.88;3.50;;;18.30;99.90;;;;;;5033811;28;20206;-78
2023/07/20 07:21:00;;;;;;;4.00;3.50;;;18.40;99.90;;;;;;5029623;28;20198;-78
2023/07/20 07:23:28;;;;;;;2.97;2.63;;;18.20;99.90;;;;;;5034222;28;20199;-78
2023/07/20 07:25:56;;;;;;;4.07;3.35;;;18.50;99.90;;;;;;5034825;28;20214;-78
2023/07/20 07:28:24;;;;;;;2.95;2.70;;;18.60;99.90;;;;;;5035052;28;20198;-78
2023/07/20 07:30:53;;;;;;;3.25;2.80;;;18.60;99.90;;;;;;5024142;28;20227;-78
2023/07/20 07:33:20;;;;;;;3.30;3.00;;;18.70;99.90;;;;;;5056113;28;20202;-79
2023/07/20 07:35:47;;;;;;;3.17;2.95;;;18.70;99.90;;;;;;5036608;28;20225;-78
2023/07/20 07:38:15;;;;;;;3.25;2.95;;;18.50;99.90;;;;;;5034815;28;20653;-79
2023/07/20 07:40:43;;;;;;;3.40;2.90;;;18.70;99.90;;;;;;5027709;28;20206;-80
2023/07/20 07:43:15;;;;;;;2.10;1.80;;;18.80;99.90;;;;;;5033543;28;20207;-79
2023/07/20 07:45:42;;;;;;;3.83;2.20;;;18.40;99.90;;;;;;5020451;28;20238;-79
2023/07/20 07:48:12;;;;;;;3.15;1.92;;;18.10;99.90;;;;;;5020857;28;20290;-79
2023/07/20 07:50:40;;;;;;;2.22;1.90;;;18.30;99.90;;;;;;5027557;28;20233;-79
2023/07/20 07:53:08;;;;;;;2.40;2.20;;;18.30;99.90;;;;;;5035554;28;20210;-79
2023/07/20 07:55:36;;;;;;;2.70;2.10;;;18.50;99.90;;;;;;5034028;28;20226;-79
2023/07/20 07:58:04;;;;;;;2.70;2.50;;;18.70;99.90;;;;;;5028007;28;20202;-79
2023/07/20 08:00:31;;;;;;;2.90;2.63;;;18.80;99.90;;;;;;5030025;28;20664;-79
2023/07/20 08:02:58;;;;;;;2.80;2.35;;;18.80;99.90;;;;;;5025921;28;20295;-78
2023/07/20 08:05:27;;;;;;;4.22;3.90;;;18.90;99.90;;;;;;5029946;28;20226;-79
2023/07/20 08:07:55;;;;;;;4.18;3.80;;;18.60;99.90;;;;;;5029250;28;20554;-79
2023/07/20 08:10:23;;;;;;;4.20;3.90;;;18.60;99.90;;;;;;5047171;28;20697;-79
2023/07/20 08:12:51;;;;;;;3.42;3.13;;;18.60;99.90;;;;;;5029263;28;20210;-79
2023/07/20 08:15:18;;;;;;;3.05;2.80;;;18.50;99.90;;;;;;5035006;28;20226;-79
2023/07/20 08:17:52;;;;;;;3.58;2.80;;;18.60;99.90;;;;;;5023437;28;20211;-79
2023/07/20 08:20:25;;;;;;;2.58;2.20;;;18.40;99.90;;;;;;5035094;28;20195;-79
2023/07/20 08:23:00;;;;;;;1.65;1.45;;;18.30;99.90;;;;;;5037100;28;20176;-79
2023/07/20 08:25:29;;;;;;;1.50;1.30;;;18.30;99.90;;;;;;5031434;28;20234;-79
2023/07/20 08:28:08;;;;;;;2.10;1.90;;;18.30;99.90;;;;;;5029552;28;20206;-79
2023/07/20 08:30:42;;;;;;;2.60;1.55;;;18.20;99.90;;;;;;5034778;28;20226;-79
2023/07/20 08:33:10;;;;;;;1.60;1.50;;;18.40;99.90;;;;;;5035814;28;20195;-79
2023/07/20 08:35:56;;;;;;;1.83;1.73;;;18.60;99.90;;;;;;5032837;28;20222;-78
2023/07/20 08:38:25;;;;;;;2.00;1.83;;;18.70;99.90;;;;;;5028155;28;20210;-81
2023/07/20 08:40:55;;;;;;;2.47;2.03;;;18.90;99.90;;;;;;5032389;28;20199;-80
2023/07/20 08:43:24;;;;;;;3.05;2.40;;;18.90;99.90;;;;;;5029589;28;20211;-82
2023/07/20 08:46:05;;;;;;;2.45;2.22;;;19.00;99.90;;;;;;5024604;28;20230;-83
2023/07/20 08:48:41;;;;;;;2.83;2.20;;;19.60;99.90;;;;;;5029515;28;20219;-82
2023/07/20 08:51:09;;;;;;;2.67;2.47;;;20.10;99.90;;;;;;5028319;28;20225;-79
2023/07/20 08:53:52;;;;;;;2.60;2.40;;;20.00;99.90;;;;;;5021114;28;20203;-82
2023/07/20 08:56:27;;;;;;;2.28;2.00;;;20.30;99.90;;;;;;5043195;28;20230;-83
2023/07/20 08:59:06;;;;;;;2.92;2.30;;;20.00;99.90;;;;;;5024824;28;20203;-83
2023/07/20 09:01:35;;;;;;;3.00;2.60;;;20.20;99.90;;;;;;5029246;28;20687;-82
2023/07/20 09:04:05;;;;;;;3.35;2.90;;;20.40;99.90;;;;;;5026310;28;20199;-82
2023/07/20 09:06:38;;;;;;;3.83;3.53;;;20.30;99.90;;;;;;5029154;28;20238;-81
2023/07/20 09:09:06;;;;;;;3.47;3.15;;;20.50;99.90;;;;;;5028044;28;20203;-81
2023/07/20 09:11:34;;;;;;;3.78;3.47;;;20.90;99.90;;;;;;5024954;28;20294;-82
2023/07/20 09:14:08;;;;;;;3.90;2.75;;;20.90;99.90;;;;;;5029733;28;20214;-81
2023/07/20 09:16:48;;;;;;;2.50;2.30;;;20.90;99.90;;;;;;5028117;28;20226;-81
2023/07/20 09:19:16;;;;;;;3.20;2.40;;;20.20;99.90;;;;;;5031781;28;20201;-81
2023/07/20 09:21:53;;;;;;;3.92;2.17;;;20.20;99.90;;;;;;5027930;28;20223;-81
2023/07/20 10:02:31;;;;;;;3.28;3.08;;;19.90;99.90;;;;;;4893795;29;20567;-87
2023/07/20 10:05:03;;;;;;;3.33;3.13;;;19.90;99.90;;;;;;4892322;29;20211;-85
2023/07/20 10:07:32;;;;;;;3.58;3.38;;;20.30;99.90;;;;;;4941134;28;20197;-84
2023/07/20 10:10:04;;;;;;;3.45;3.15;;;20.30;99.90;;;;;;5025504;28;20673;-85
2023/07/20 10:12:32;;;;;;;4.22;3.92;;;20.60;99.90;;;;;;5028818;28;20234;-85
2023/07/20 10:15:11;;;;;;;4.78;4.45;;;20.70;99.90;;;;;;5045650;28;20210;-85
2023/07/20 10:17:49;;;;;;;3.63;3.33;;;20.50;99.90;;;;;;5026899;28;20210;-85
2023/07/20 10:20:21;;;;;;;3.75;3.45;;;20.40;99.90;;;;;;5029293;28;20209;-84
2023/07/20 10:22:49;;;;;;;3.42;3.22;;;20.30;99.90;;;;;;5023278;28;20230;-85
2023/07/20 10:25:19;;;;;;;3.50;3.20;;;20.30;99.90;;;;;;5025037;28;20219;-85
2023/07/20 10:27:48;;;;;;;3.20;3.00;;;20.60;99.90;;;;;;5029810;28;20206;-84
2023/07/20 10:30:18;;;;;;;3.88;3.20;;;20.70;99.90;;;;;;5029781;28;20599;-85
2023/07/20 10:32:46;;;;;;;3.60;3.30;;;20.80;99.90;;;;;;5034336;28;20199;-84
2023/07/20 10:35:16;;;;;;;2.80;2.60;;;20.60;99.90;;;;;;5029861;28;20219;-84
2023/07/20 10:37:51;;;;;;;3.65;3.28;;;20.60;99.90;;;;;;5023081;28;20222;-84
2023/07/20 10:40:30;;;;;;;2.80;2.60;;;20.60;99.90;;;;;;5025958;28;20206;-84
2023/07/20 10:42:59;;;;;;;2.17;1.98;;;20.80;99.00;;;;;;5021246;28;20679;-87
2023/07/20 10:45:54;;;;;;;2.15;2.05;;;20.60;96.70;;;;;;5021764;28;20211;-86
2023/07/20 10:48:23;;;;;;;2.17;1.98;;;20.60;96.20;;;;;;5027234;28;20325;-87
2023/07/20 10:51:10;;;;;;;2.17;1.98;;;20.80;97.80;;;;;;5044684;28;20226;-87
2023/07/20 10:53:43;;;;;;;1.90;1.80;;;21.20;99.90;;;;;;5036114;28;20553;-87
2023/07/20 10:56:21;;;;;;;2.63;2.42;;;21.50;99.10;;;;;;5029048;28;20219;-87
2023/07/20 10:58:48;;;;;;;2.00;1.90;;;21.70;98.70;;;;;;5009517;28;20210;-87
2023/07/20 11:01:18;;;;;;;2.03;1.50;;;21.60;95.80;;;;;;5016502;28;20637;-88
2023/07/20 11:03:51;;;;;;;1.92;1.60;;;21.20;95.20;;;;;;5027837;28;20679;-88
2023/07/20 11:06:34;;;;;;;1.55;1.10;;;21.50;96.50;;;;;;5024060;28;20579;-87
2023/07/20 11:09:07;;;;;;;1.90;1.00;;;21.80;94.20;;;;;;5023529;28;20562;-88
2023/07/20 11:11:37;;;;;;;2.33;1.17;;;21.40;91.00;;;;;;5016583;28;20220;-87
2023/07/20 11:14:06;;;;;;;1.27;1.08;;;21.40;91.70;;;;;;5023785;28;20199;-88
2023/07/20 11:16:48;;;;;;;1.27;1.20;;;21.80;92.30;;;;;;5027451;28;20234;-87
2023/07/20 11:19:24;;;;;;;1.20;1.10;;;21.70;93.80;;;;;;5028696;28;20203;-88
2023/07/20 11:21:53;;;;;;;1.63;1.40;;;21.60;93.20;;;;;;5028619;28;20214;-87
2023/07/20 11:24:24;;;;;;;1.17;1.10;;;21.40;94.90;;;;;;5028905;28;20235;-87
2023/07/20 11:26:58;;;;;;;1.50;1.35;;;21.60;95.00;;;;;;5025611;28;20585;-88
2023/07/20 11:29:33;;;;;;;1.52;1.42;;;21.90;94.50;;;;;;5022777;28;20206;-88
2023/07/20 11:32:05;;;;;;;1.35;1.13;;;22.10;94.70;;;;;;5024447;28;20222;-88
2023/07/20 11:34:33;;;;;;;2.10;1.25;;;22.10;93.70;;;;;;5028982;28;20195;-89
2023/07/20 11:37:02;;;;;;;1.52;1.42;;;22.20;92.80;;;;;;5027025;28;20223;-88
2023/07/20 11:39:30;;;;;;;2.45;1.00;;;22.10;92.50;;;;;;5024676;28;20203;-89
2023/07/20 11:41:58;;;;;;;1.63;1.13;;;22.40;91.30;;;;;;5012424;28;20202;-85
2023/07/20 11:44:40;;;;;;;1.00;0.88;;;22.50;91.30;;;;;;5021881;28;20199;-87
2023/07/20 11:47:31;;;;;;;1.38;0.80;;;22.90;92.50;;;;;;5014807;28;20223;-88
2023/07/20 11:50:04;;;;;;;0.88;0.88;;;23.10;92.50;;;;;;5024984;28;20211;-88
2023/07/20 11:52:32;;;;;;;2.35;0.90;;;23.10;91.20;;;;;;5026266;28;20208;-88
2023/07/20 11:58:48;;;;;;;1.15;1.05;;;22.90;90.10;;;;;;5039412;28;20178;-88
2023/07/20 12:01:16;;;;;;;0.95;0.80;;;22.30;90.10;;;;;;5021906;28;20682;-87
2023/07/20 12:03:45;;;;;;;1.77;1.02;;;22.30;90.00;;;;;;5029064;28;20669;-88
2023/07/20 12:06:14;;;;;;;1.20;1.10;;;22.10;91.30;;;;;;5020214;28;20222;-87
2023/07/20 12:08:44;;;;;;;1.35;1.25;;;21.90;91.80;;;;;;5026699;28;20207;-88
2023/07/20 12:11:45;;;;;;;1.10;0.90;;;21.70;92.40;;;;;;5030429;28;20206;-87
2023/07/20 12:14:13;;;;;;;1.25;1.00;;;21.80;93.60;;;;;;5043510;28;20206;-87
2023/07/20 12:16:40;;;;;;;1.27;0.90;;;22.30;91.60;;;;;;5025335;28;20219;-87
2023/07/20 12:19:11;;;;;;;2.92;1.60;;;22.30;90.80;;;;;;5025204;28;20705;-87
2023/07/20 12:21:39;;;;;;;2.95;1.00;;;22.90;91.00;;;;;;5027987;28;20187;-81
2023/07/20 12:24:08;;;;;;;2.72;1.02;;;23.30;89.80;;;;;;5026312;28;20567;-81
2023/07/20 12:26:36;;;;;;;1.30;0.90;;;23.90;90.40;;;;;;5031823;28;20223;-81
2023/07/20 12:29:04;;;;;;;1.30;0.85;;;24.20;86.60;;;;;;5031568;28;20573;-81
2023/07/20 12:31:37;;;;;;;1.67;0.80;;;24.00;86.20;;;;;;5028726;28;20624;-81
2023/07/20 12:34:05;;;;;;;1.10;0.88;;;23.50;86.30;;;;;;5023938;28;20196;-81
2023/07/20 12:36:34;;;;;;;0.75;0.75;;;23.10;84.00;;;;;;5025875;28;20229;-81
2023/07/20 12:39:01;;;;;;;0.98;0.80;;;23.40;83.10;;;;;;5031453;28;20210;-80
2023/07/20 12:41:29;;;;;;;1.42;0.90;;;23.40;79.80;;;;;;5029967;28;20669;-81
2023/07/20 12:43:57;;;;;;;2.72;1.10;;;23.20;81.00;;;;;;5030728;28;20218;-81
2023/07/20 12:46:25;;;;;;;0.85;0.85;;;23.20;81.90;;;;;;5028043;28;20716;-81
2023/07/20 12:48:53;;;;;;;1.63;0.88;;;23.70;80.30;;;;;;5029002;28;20211;-81
2023/07/20 12:51:20;;;;;;;1.10;1.00;;;23.90;80.60;;;;;;5029054;28;20195;-81
2023/07/20 12:53:49;;;;;;;1.13;1.02;;;23.90;80.00;;;;;;5023543;28;20250;-80
2023/07/20 12:56:33;;;;;;;1.83;0.90;;;23.70;80.10;;;;;;5036409;28;20211;-81
2023/07/20 12:59:02;;;;;;;1.33;1.10;;;23.90;81.90;;;;;;5033254;28;20206;-81
2023/07/20 13:01:30;;;;;;;1.00;0.90;;;23.60;81.10;;;;;;5027382;28;20204;-80
2023/07/20 13:03:57;;;;;;;1.20;1.10;;;23.60;81.80;;;;;;5028179;28;20218;-81
2023/07/20 13:06:25;;;;;;;1.52;1.30;;;23.40;79.70;;;;;;5029099;28;20226;-81
2023/07/20 13:08:56;;;;;;;2.03;1.20;;;22.80;83.00;;;;;;5034143;28;20203;-81
2023/07/20 13:11:23;;;;;;;1.20;1.10;;;22.50;82.70;;;;;;5030099;28;20195;-81
2023/07/20 13:13:51;;;;;;;0.95;0.95;;;22.40;83.20;;;;;;5031194;28;20230;-81
2023/07/20 13:16:18;;;;;;;1.35;0.93;;;22.50;82.50;;;;;;5034040;28;20225;-81
2023/07/20 13:18:46;;;;;;;2.15;1.27;;;22.90;83.90;;;;;;5034840;28;20194;-81
2023/07/20 13:21:13;;;;;;;1.20;1.10;;;22.80;82.70;;;;;;5031948;28;20199;-81
2023/07/20 13:23:53;;;;;;;1.05;0.98;;;22.90;81.90;;;;;;5026855;28;20198;-81
2023/07/20 13:26:22;;;;;;;1.55;0.90;;;23.00;86.00;;;;;;5031806;28;20342;-80
2023/07/20 13:28:58;;;;;;;1.08;0.98;;;22.80;83.30;;;;;;5020292;28;20567;-81
2023/07/20 13:31:29;;;;;;;1.20;0.93;;;22.50;84.50;;;;;;5030182;28;20688;-81
2023/07/20 13:33:59;;;;;;;1.95;0.90;;;22.60;83.20;;;;;;5028745;28;20830;-81
2023/07/20 13:36:26;;;;;;;0.80;0.70;;;22.60;83.50;;;;;;5026325;28;20222;-81
2023/07/20 13:38:55;;;;;;;2.00;0.98;;;22.90;83.90;;;;;;5023544;28;20207;-82